Time;durP1;ratioP1;P1;durP2;ratioP2;P2;SDS_P1;SDS_P2;PMS_P1;PMS_P2;Temp;Humidity;BMP_temperature;BMP_pressure;BME280_temperature;BME280_humidity;BME280_pressure;Samples;Min_cycle;Max_cycle;Signal;HPM_P1;HPM_P2
2022/01/09 00:01:58;;;;;;;1.20;1.10;;;;;;;20.49;40.96;95437.44;12610427;23;20018;-53
2022/01/09 00:07:17;;;;;;;1.20;1.10;;;;;;;20.48;41.00;95439.38;12611978;23;20022;-53
2022/01/09 00:12:37;;;;;;;1.20;1.10;;;;;;;20.47;40.96;95423.50;12611572;23;20023;-52
2022/01/09 00:17:56;;;;;;;1.10;1.00;;;;;;;20.46;40.82;95411.88;12630805;23;20014;-54
2022/01/09 00:23:16;;;;;;;1.15;0.90;;;;;;;20.44;40.83;95395.25;12611341;23;20020;-51
2022/01/09 00:28:35;;;;;;;0.82;0.82;;;;;;;20.43;40.93;95380.16;12630186;23;20018;-54
2022/01/09 00:33:55;;;;;;;1.10;1.00;;;;;;;20.42;40.87;95377.81;12611216;23;20022;-52
2022/01/09 00:39:14;;;;;;;0.95;0.82;;;;;;;20.40;40.84;95361.19;12611270;23;20029;-53
2022/01/09 00:44:33;;;;;;;0.75;0.75;;;;;;;20.40;40.93;95355.75;12610876;23;20050;-51
2022/01/09 00:49:53;;;;;;;1.10;1.00;;;;;;;20.39;40.92;95356.94;12610703;23;20096;-51
2022/01/09 00:55:13;;;;;;;1.40;0.90;;;;;;;20.37;40.96;95343.00;12610599;23;20018;-51
2022/01/09 01:00:35;;;;;;;1.20;1.10;;;;;;;20.34;40.90;95334.44;12610722;23;20328;-52
2022/01/09 01:05:54;;;;;;;2.45;1.20;;;;;;;20.33;40.83;95330.19;12609614;23;20021;-54
2022/01/09 01:11:13;;;;;;;1.23;1.13;;;;;;;20.32;41.01;95325.13;12610180;23;20073;-51
2022/01/09 01:16:33;;;;;;;1.10;1.00;;;;;;;20.31;40.80;95327.06;12629376;23;20025;-54
2022/01/09 01:21:52;;;;;;;1.23;1.13;;;;;;;20.29;40.86;95321.25;12629570;23;20451;-53
2022/01/09 01:27:13;;;;;;;1.27;1.10;;;;;;;20.27;40.91;95320.81;12610132;23;20049;-54
2022/01/09 01:32:33;;;;;;;1.17;1.08;;;;;;;20.25;40.86;95306.88;12610049;23;20161;-51
2022/01/09 01:37:52;;;;;;;1.42;1.10;;;;;;;20.25;40.82;95292.59;12609894;23;20024;-51
2022/01/09 01:43:12;;;;;;;1.13;1.00;;;;;;;20.22;40.90;95288.69;12629184;23;20024;-54
2022/01/09 01:48:31;;;;;;;1.20;1.10;;;;;;;20.21;40.88;95279.03;12629065;23;20025;-54
2022/01/09 01:53:54;;;;;;;0.82;0.82;;;;;;;20.20;40.87;95265.84;12609808;23;20089;-51
2022/01/09 01:59:14;;;;;;;1.33;1.10;;;;;;;20.18;40.88;95252.69;12587978;23;20063;-52
2022/01/09 02:04:33;;;;;;;1.15;1.05;;;;;;;20.15;40.89;95237.22;12609640;23;20086;-53
2022/01/09 02:09:52;;;;;;;1.17;1.08;;;;;;;20.14;40.79;95212.09;12628962;23;20015;-53
2022/01/09 02:15:32;;;;;;;1.00;0.90;;;;;;;20.11;40.75;95210.13;12608873;23;20015;-52
2022/01/09 02:20:52;;;;;;;1.33;1.10;;;;;;;20.10;40.80;95199.69;12609614;23;20346;-54
2022/01/09 02:26:16;;;;;;;0.80;0.80;;;;;;;20.08;40.75;95191.16;12609287;23;20025;-53
2022/01/09 02:31:36;;;;;;;0.90;0.90;;;;;;;20.06;40.86;95193.44;12609255;23;20327;-51
2022/01/09 02:36:55;;;;;;;1.10;1.00;;;;;;;20.04;40.97;95180.28;12608405;23;20073;-51
2022/01/09 02:42:24;;;;;;;0.82;0.82;;;;;;;20.02;41.03;95174.47;12628743;23;20077;-53
2022/01/09 02:47:43;;;;;;;1.35;0.90;;;;;;;20.00;40.88;95151.66;12609184;23;20018;-51
2022/01/09 02:53:14;;;;;;;0.93;0.82;;;;;;;19.99;40.96;95152.81;12608559;23;20065;-51
2022/01/09 02:58:34;;;;;;;1.08;0.98;;;;;;;19.97;41.03;95141.59;12610350;23;20324;-53
2022/01/09 03:03:53;;;;;;;0.80;0.80;;;;;;;19.94;40.97;95132.28;12632983;23;20034;-51
2022/01/09 03:09:12;;;;;;;0.90;0.90;;;;;;;19.93;40.98;95126.13;12632801;23;20395;-51
2022/01/09 03:14:32;;;;;;;0.90;0.90;;;;;;;19.92;40.99;95119.13;12613010;23;20113;-51
2022/01/09 03:19:52;;;;;;;0.80;0.80;;;;;;;19.90;40.98;95099.81;12612365;23;20158;-53
2022/01/09 03:25:12;;;;;;;2.35;0.95;;;;;;;19.88;41.05;95094.00;12613181;23;20038;-51
2022/01/09 03:30:31;;;;;;;0.75;0.75;;;;;;;19.86;40.90;95085.47;12613093;23;20018;-51
2022/01/09 03:35:51;;;;;;;0.80;0.80;;;;;;;19.86;40.96;95082.00;12611628;23;20076;-51
2022/01/09 03:41:11;;;;;;;0.98;0.80;;;;;;;19.84;41.02;95081.59;12612669;23;20026;-53
2022/01/09 03:46:30;;;;;;;0.75;0.75;;;;;;;19.81;40.95;95074.97;12612630;23;20029;-53
2022/01/09 03:51:53;;;;;;;0.82;0.82;;;;;;;19.80;40.84;95068.03;12631763;23;20025;-51
2022/01/09 03:57:12;;;;;;;0.80;0.80;;;;;;;19.78;40.94;95070.31;12612238;23;20201;-54
2022/01/09 04:02:31;;;;;;;0.70;0.70;;;;;;;19.76;40.75;95067.22;12611744;23;20034;-52
2022/01/09 04:07:51;;;;;;;0.98;0.90;;;;;;;19.77;40.89;95065.28;12611952;23;20085;-51
2022/01/09 04:13:12;;;;;;;0.70;0.70;;;;;;;19.73;40.77;95057.13;12611913;23;20474;-51
2022/01/09 04:18:32;;;;;;;1.08;0.98;;;;;;;19.71;40.89;95054.78;12611372;23;20100;-51
2022/01/09 04:23:51;;;;;;;1.00;0.80;;;;;;;19.70;40.78;95052.44;12631575;23;20026;-51
2022/01/09 04:29:10;;;;;;;0.73;0.73;;;;;;;19.68;40.73;95049.31;12611767;23;20050;-52
2022/01/09 04:34:30;;;;;;;0.77;0.77;;;;;;;19.67;40.80;95042.38;12611639;23;20029;-51
2022/01/09 04:39:51;;;;;;;0.95;0.90;;;;;;;19.64;40.74;95024.97;12611711;23;20046;-51
2022/01/09 04:45:13;;;;;;;0.85;0.77;;;;;;;19.63;40.94;95017.22;12611508;23;20015;-52
2022/01/09 04:50:35;;;;;;;0.80;0.80;;;;;;;19.62;40.92;95010.25;12630883;23;20094;-51
2022/01/09 04:55:54;;;;;;;0.70;0.70;;;;;;;19.59;40.91;95000.22;12611225;23;20045;-54
2022/01/09 05:01:14;;;;;;;0.85;0.73;;;;;;;19.57;40.80;94989.75;12611351;23;20498;-53
2022/01/09 05:06:33;;;;;;;0.93;0.85;;;;;;;19.56;40.66;94989.00;12610138;23;20131;-51
2022/01/09 05:11:52;;;;;;;0.65;0.65;;;;;;;19.53;40.79;94994.34;12610415;23;20077;-53
2022/01/09 05:17:12;;;;;;;0.70;0.70;;;;;;;19.51;40.76;95000.09;12610565;23;20026;-53
2022/01/09 05:22:31;;;;;;;1.15;0.90;;;;;;;19.50;40.97;95006.66;12610529;23;20849;-53
2022/01/09 05:27:51;;;;;;;0.68;0.60;;;;;;;19.49;40.76;95015.13;12610638;23;20018;-51
2022/01/09 05:33:10;;;;;;;0.60;0.60;;;;;;;19.47;40.89;95017.44;12610184;23;20081;-51
2022/01/09 05:38:29;;;;;;;0.68;0.68;;;;;;;19.45;40.66;95025.13;12629930;23;20015;-53
2022/01/09 05:43:49;;;;;;;0.60;0.60;;;;;;;19.44;40.79;95028.94;12610572;23;20395;-51
2022/01/09 05:49:09;;;;;;;0.57;0.57;;;;;;;19.42;40.91;95034.72;12609314;23;20025;-51
2022/01/09 05:54:28;;;;;;;0.40;0.40;;;;;;;19.42;40.70;95025.84;12609194;23;20015;-51
2022/01/09 05:59:47;;;;;;;0.60;0.60;;;;;;;19.42;40.72;95012.34;12609686;23;20037;-52
2022/01/09 06:05:07;;;;;;;0.60;0.60;;;;;;;19.41;40.99;95016.97;12629370;23;20073;-53
2022/01/09 06:10:27;;;;;;;0.93;0.80;;;;;;;19.42;40.77;95040.09;12610741;23;20022;-52
2022/01/09 06:15:46;;;;;;;0.70;0.70;;;;;;;19.44;40.85;95037.81;12610016;23;20023;-51
2022/01/09 06:21:05;;;;;;;0.70;0.70;;;;;;;19.45;40.72;95030.50;12610334;23;20025;-53
2022/01/09 06:26:25;;;;;;;0.70;0.70;;;;;;;19.45;40.82;95030.50;12610245;23;20514;-52
2022/01/09 06:31:45;;;;;;;0.70;0.70;;;;;;;19.45;40.97;95030.50;12610511;23;20014;-59
2022/01/09 06:37:05;;;;;;;0.60;0.60;;;;;;;19.44;40.90;95029.72;12610299;23;20025;-51
2022/01/09 06:42:24;;;;;;;0.50;0.50;;;;;;;19.44;40.85;95018.91;12629746;23;20019;-52
2022/01/09 06:47:43;;;;;;;0.80;0.60;;;;;;;19.44;40.94;95016.22;12629886;23;20019;-51
2022/01/09 06:53:04;;;;;;;0.63;0.63;;;;;;;19.45;41.08;95017.00;12629707;23;20502;-51
2022/01/09 06:58:23;;;;;;;0.60;0.60;;;;;;;19.45;40.93;95017.00;12609710;23;20019;-53
2022/01/09 07:03:42;;;;;;;0.50;0.50;;;;;;;19.45;40.97;95014.31;12629485;23;20072;-53
2022/01/09 07:09:03;;;;;;;0.60;0.60;;;;;;;19.45;40.90;95004.28;12609739;23;20041;-54
2022/01/09 07:14:23;;;;;;;0.60;0.60;;;;;;;19.47;40.90;94991.19;12629737;23;20028;-53
2022/01/09 07:19:42;;;;;;;0.50;0.50;;;;;;;19.50;40.93;95003.16;12612089;23;20022;-55
2022/01/09 07:25:02;;;;;;;0.45;0.45;;;;;;;19.51;40.79;95000.09;12609298;23;20026;-51
2022/01/09 07:30:21;;;;;;;0.60;0.60;;;;;;;19.53;40.81;94992.41;12610343;23;20073;-52
2022/01/09 07:35:41;;;;;;;0.60;0.60;;;;;;;19.55;40.73;94995.53;12609042;23;20014;-54
2022/01/09 07:41:00;;;;;;;0.50;0.50;;;;;;;19.57;40.84;94997.88;12610123;23;20055;-53
2022/01/09 07:46:20;;;;;;;0.63;0.60;;;;;;;19.61;40.89;95001.38;12607877;23;20324;-54
2022/01/09 07:51:39;;;;;;;0.50;0.50;;;;;;;19.63;40.75;94995.63;12612438;23;20025;-51
2022/01/09 07:56:58;;;;;;;0.60;0.60;;;;;;;19.65;40.92;94994.09;12612993;23;20019;-53
2022/01/09 08:02:18;;;;;;;0.50;0.50;;;;;;;19.68;40.88;95001.47;12613242;23;20019;-52
2022/01/09 08:07:37;;;;;;;0.60;0.60;;;;;;;19.71;40.89;95003.47;12612991;23;20025;-53
2022/01/09 08:13:00;;;;;;;0.60;0.60;;;;;;;19.75;40.95;95006.22;12591032;23;20039;-53
2022/01/09 08:18:20;;;;;;;0.55;0.55;;;;;;;19.76;40.99;95002.38;12614837;23;20022;-53
2022/01/09 08:23:40;;;;;;;0.60;0.60;;;;;;;19.81;41.03;95006.66;12611053;23;20019;-51
2022/01/09 08:28:59;;;;;;;1.25;0.63;;;;;;;19.82;41.14;95003.59;12611408;23;20125;-51
2022/01/09 08:34:19;;;;;;;1.30;0.80;;;;;;;19.84;41.36;95012.09;12609807;23;20022;-52
2022/01/09 08:39:40;;;;;;;1.08;0.90;;;;;;;19.85;41.21;95010.94;12631807;23;20018;-54
2022/01/09 08:45:00;;;;;;;0.95;0.90;;;;;;;19.88;41.20;95020.25;12611761;23;20022;-51
2022/01/09 08:50:20;;;;;;;0.70;0.70;;;;;;;19.87;41.22;95011.34;12611109;23;20018;-53
2022/01/09 08:55:40;;;;;;;0.80;0.80;;;;;;;19.88;41.28;95010.22;12610632;23;20018;-51
2022/01/09 09:01:00;;;;;;;8.10;0.90;;;;;;;19.89;41.35;95014.47;12611754;23;20549;-51
2022/01/09 09:06:19;;;;;;;0.80;0.80;;;;;;;19.92;41.38;95021.84;12611130;23;20020;-54
2022/01/09 09:11:39;;;;;;;2.67;0.80;;;;;;;19.94;41.26;95024.97;12630736;23;20105;-52
2022/01/09 09:16:58;;;;;;;0.57;0.57;;;;;;;19.97;41.30;95022.66;12611078;23;20036;-52
2022/01/09 09:22:17;;;;;;;1.77;0.75;;;;;;;19.99;41.18;95031.94;12611446;23;20347;-51
2022/01/09 09:27:37;;;;;;;0.63;0.63;;;;;;;20.02;41.43;95020.41;12606562;23;20382;-54
2022/01/09 09:32:57;;;;;;;0.95;0.77;;;;;;;20.04;41.33;95026.22;12613582;23;20023;-51
2022/01/09 09:38:16;;;;;;;0.90;0.80;;;;;;;20.07;41.27;95035.50;12610232;23;20025;-51
2022/01/09 09:43:37;;;;;;;0.85;0.70;;;;;;;20.09;41.34;95034.00;12609531;23;20698;-52
2022/01/09 09:48:56;;;;;;;1.15;0.80;;;;;;;20.14;41.37;95038.28;12605699;23;20023;-54
2022/01/09 09:54:15;;;;;;;1.30;0.77;;;;;;;20.19;41.23;95043.38;12608597;23;20338;-51
2022/01/09 09:59:37;;;;;;;2.05;0.70;;;;;;;20.21;41.29;95043.78;12610421;23;20018;-52
2022/01/09 10:04:59;;;;;;;2.03;0.60;;;;;;;20.26;41.28;95048.84;12630113;23;20057;-51
2022/01/09 10:10:20;;;;;;;0.82;0.60;;;;;;;20.28;41.28;95041.13;12629911;23;20018;-51
2022/01/09 10:15:56;;;;;;;1.10;0.70;;;;;;;20.31;41.22;95043.13;12609393;23;20015;-51
2022/01/09 10:21:20;;;;;;;1.00;0.90;;;;;;;20.33;38.22;95048.94;12626510;23;20069;-52
2022/01/09 10:26:47;;;;;;;2.35;0.90;;;;;;;20.36;40.08;95055.50;12608564;23;20019;-54
2022/01/09 10:32:16;;;;;;;0.88;0.70;;;;;;;20.39;40.03;95051.31;12629590;23;20073;-52
2022/01/09 10:37:37;;;;;;;0.75;0.75;;;;;;;20.39;40.03;95049.38;12629188;23;20018;-51
2022/01/09 10:43:07;;;;;;;0.88;0.70;;;;;;;20.40;40.03;95055.56;12609589;23;20014;-52
2022/01/09 10:48:33;;;;;;;0.80;0.77;;;;;;;20.41;40.20;95055.19;12629649;23;20349;-52
2022/01/09 10:53:53;;;;;;;1.48;0.80;;;;;;;20.42;40.14;95058.66;12609241;23;20022;-54
2022/01/09 10:59:13;;;;;;;0.85;0.63;;;;;;;20.43;40.25;95065.63;12609273;23;20034;-51
2022/01/09 11:04:33;;;;;;;0.63;0.50;;;;;;;20.44;40.32;95075.28;12609805;23;20014;-52
2022/01/09 11:09:55;;;;;;;3.42;0.80;;;;;;;20.43;40.42;95077.22;12609470;23;20466;-52
2022/01/09 11:15:18;;;;;;;1.00;0.80;;;;;;;20.43;40.39;95079.16;12607807;23;20026;-54
2022/01/09 11:20:38;;;;;;;0.80;0.80;;;;;;;20.44;40.43;95091.53;12610862;23;20502;-51
2022/01/09 11:25:58;;;;;;;0.63;0.60;;;;;;;20.44;40.57;95088.81;12633217;23;20026;-51
2022/01/09 11:31:38;;;;;;;0.93;0.70;;;;;;;20.44;40.66;95092.28;12592104;23;20023;-52
2022/01/09 11:37:14;;;;;;;1.75;0.88;;;;;;;20.44;40.62;95091.53;12611478;23;20041;-52
2022/01/09 11:42:34;;;;;;;0.57;0.57;;;;;;;20.43;40.61;95092.69;12591868;23;20014;-54
2022/01/09 11:47:53;;;;;;;0.70;0.70;;;;;;;20.44;40.62;95099.63;12612897;23;20018;-52
2022/01/09 11:53:12;;;;;;;0.73;0.70;;;;;;;20.43;40.76;95109.69;12612469;23;20014;-54
2022/01/09 11:58:31;;;;;;;0.60;0.60;;;;;;;20.43;40.82;95109.69;12591323;23;20391;-52
2022/01/09 12:03:51;;;;;;;0.68;0.68;;;;;;;20.43;40.75;95108.91;12632335;23;20018;-51
2022/01/09 12:09:11;;;;;;;0.75;0.60;;;;;;;20.42;40.81;95108.09;12632241;23;20033;-51
2022/01/09 12:15:04;;;;;;;0.90;0.70;;;;;;;20.42;40.83;95120.88;12611803;23;20014;-51
2022/01/09 12:20:27;;;;;;;0.80;0.80;;;;;;;20.41;40.95;95119.31;12631823;23;20149;-54
2022/01/09 12:25:50;;;;;;;0.93;0.80;;;;;;;20.41;40.92;95119.31;12611894;23;20022;-52
2022/01/09 12:31:21;;;;;;;0.80;0.80;;;;;;;20.40;40.95;95115.06;12631663;23;20018;-53
2022/01/09 12:36:41;;;;;;;1.83;0.65;;;;;;;20.38;41.02;95117.34;12611512;23;20018;-53
2022/01/09 12:42:01;;;;;;;0.68;0.65;;;;;;;20.38;40.96;95111.94;12611303;23;20018;-54
2022/01/09 12:47:21;;;;;;;1.10;0.70;;;;;;;20.37;41.05;95126.63;12611663;23;20018;-52
2022/01/09 12:52:40;;;;;;;0.55;0.55;;;;;;;20.35;41.03;95125.06;12631215;23;20019;-53
2022/01/09 12:58:00;;;;;;;0.80;0.80;;;;;;;20.34;41.10;95128.88;12610818;23;20073;-51
2022/01/09 13:03:22;;;;;;;0.70;0.70;;;;;;;20.34;41.19;95128.13;12611426;23;20089;-53
2022/01/09 13:08:46;;;;;;;0.70;0.70;;;;;;;20.32;41.26;95136.59;12611432;23;20025;-53
2022/01/09 13:14:08;;;;;;;0.60;0.60;;;;;;;20.31;41.19;95143.16;12630887;23;20021;-51
2022/01/09 13:19:28;;;;;;;0.50;0.50;;;;;;;20.30;41.23;95149.72;12630448;23;20073;-53
2022/01/09 13:24:48;;;;;;;1.77;0.60;;;;;;;20.28;41.12;95152.00;12610935;23;20029;-52
2022/01/09 13:30:07;;;;;;;0.70;0.70;;;;;;;20.29;41.17;95160.91;12610489;23;20026;-54
2022/01/09 13:35:27;;;;;;;0.65;0.60;;;;;;;20.27;41.26;95166.69;12609817;23;20034;-53
2022/01/09 13:40:46;;;;;;;0.68;0.60;;;;;;;20.26;41.36;95172.47;12610418;23;20026;-51
2022/01/09 13:46:11;;;;;;;0.50;0.50;;;;;;;20.26;41.32;95173.22;12589607;23;20018;-51
2022/01/09 13:51:44;;;;;;;0.73;0.70;;;;;;;20.24;41.38;95180.94;12630339;23;20443;-53
2022/01/09 13:57:13;;;;;;;0.52;0.52;;;;;;;20.23;41.26;95192.91;12608693;23;20014;-54
2022/01/09 14:02:41;;;;;;;0.50;0.50;;;;;;;20.21;41.19;95192.50;12629840;23;20030;-52
2022/01/09 14:08:00;;;;;;;0.75;0.60;;;;;;;20.21;41.40;95205.22;12589259;23;20018;-52
2022/01/09 14:13:25;;;;;;;0.43;0.40;;;;;;;20.18;41.28;95208.66;12608601;23;20022;-52
2022/01/09 14:18:54;;;;;;;0.55;0.55;;;;;;;20.18;41.45;95206.72;12606955;23;20110;-51
2022/01/09 14:24:21;;;;;;;0.45;0.40;;;;;;;20.15;41.46;95210.97;12609436;23;20018;-53
2022/01/09 14:29:44;;;;;;;0.60;0.60;;;;;;;20.14;41.52;95214.03;12609942;23;20443;-51
2022/01/09 14:35:04;;;;;;;1.58;0.60;;;;;;;20.12;41.49;95227.13;12610272;23;20309;-52
2022/01/09 14:40:24;;;;;;;0.88;0.68;;;;;;;20.11;41.45;95225.56;12609374;23;20026;-54
2022/01/09 14:45:44;;;;;;;0.60;0.50;;;;;;;20.10;41.51;95229.41;12609984;23;20014;-52
2022/01/09 14:51:07;;;;;;;0.60;0.60;;;;;;;20.09;41.40;95241.38;12609585;23;20065;-52
2022/01/09 14:56:28;;;;;;;0.50;0.50;;;;;;;20.07;41.38;95251.75;12613563;23;20072;-51
2022/01/09 15:01:47;;;;;;;0.52;0.50;;;;;;;20.07;41.53;95259.88;12614062;23;20022;-52
2022/01/09 15:07:07;;;;;;;0.50;0.50;;;;;;;20.04;41.53;95266.81;12613044;23;20019;-51
2022/01/09 15:12:26;;;;;;;0.63;0.60;;;;;;;20.04;41.63;95279.53;12612658;23;20055;-51
2022/01/09 15:17:47;;;;;;;0.50;0.50;;;;;;;20.01;41.60;95293.78;12613685;23;20082;-51
2022/01/09 15:23:08;;;;;;;0.45;0.45;;;;;;;20.01;41.78;95299.94;12630391;23;20041;-54
2022/01/09 15:28:28;;;;;;;2.70;0.70;;;;;;;19.94;38.17;95300.63;12611272;23;20023;-51
2022/01/09 15:33:47;;;;;;;1.92;1.08;;;;;;;19.83;36.90;95309.72;12610992;23;20056;-51
2022/01/09 15:39:07;;;;;;;3.00;1.65;;;;;;;19.78;36.77;95315.41;12612890;23;20026;-51
2022/01/09 15:44:27;;;;;;;1.42;1.10;;;;;;;19.76;36.45;95321.19;12612510;23;20089;-52
2022/01/09 15:49:47;;;;;;;1.52;1.08;;;;;;;19.72;35.97;95331.94;12612960;23;20022;-51
2022/01/09 15:55:07;;;;;;;1.48;1.00;;;;;;;19.69;35.42;95348.06;12611564;23;20037;-50
2022/01/09 16:00:27;;;;;;;1.08;0.90;;;;;;;19.66;35.21;95352.28;12611766;23;20025;-51
2022/01/09 16:05:46;;;;;;;1.10;0.90;;;;;;;19.68;35.65;95363.50;12628952;23;20045;-51
2022/01/09 16:11:06;;;;;;;1.15;0.90;;;;;;;19.72;35.44;95369.00;12612694;23;20022;-54
2022/01/09 16:16:25;;;;;;;3.15;1.10;;;;;;;19.74;35.22;95372.13;12612414;23;20026;-51
2022/01/09 16:21:45;;;;;;;2.95;1.10;;;;;;;19.68;34.30;95384.31;12611736;23;20022;-53
2022/01/09 16:27:04;;;;;;;4.43;1.20;;;;;;;19.60;34.09;95390.72;12632161;23;20089;-51
2022/01/09 16:32:24;;;;;;;2.05;0.98;;;;;;;19.55;34.50;95397.22;12631659;23;20505;-52
2022/01/09 16:37:43;;;;;;;2.47;1.00;;;;;;;19.61;35.61;95405.81;12631786;23;20014;-52
2022/01/09 16:43:03;;;;;;;2.40;1.10;;;;;;;19.68;35.61;95428.34;12629934;23;20458;-53
2022/01/09 16:48:22;;;;;;;1.38;1.02;;;;;;;19.73;35.70;95425.34;12612198;23;20019;-51
2022/01/09 16:53:43;;;;;;;1.38;1.00;;;;;;;19.77;35.46;95430.81;12631195;23;20097;-51
2022/01/09 16:59:02;;;;;;;1.63;1.10;;;;;;;19.81;35.43;95439.78;12609042;23;20085;-50
2022/01/09 17:04:22;;;;;;;1.58;0.95;;;;;;;19.84;35.35;95455.28;12610224;23;20018;-52
2022/01/09 17:09:42;;;;;;;1.10;0.70;;;;;;;19.89;35.18;95462.31;12610251;23;20030;-51
2022/01/09 17:15:01;;;;;;;1.33;0.90;;;;;;;19.92;35.04;95470.50;12610625;23;20019;-52
2022/01/09 17:20:21;;;;;;;2.65;1.10;;;;;;;19.98;34.62;95481.03;12609776;23;20031;-52
2022/01/09 17:25:41;;;;;;;1.20;0.90;;;;;;;19.99;34.41;95490.69;12610936;23;20025;-51
2022/01/09 17:31:00;;;;;;;1.30;0.90;;;;;;;20.04;34.09;95498.50;12610532;23;20466;-51
2022/01/09 17:36:20;;;;;;;1.30;0.90;;;;;;;20.06;33.82;95498.94;12630644;23;20014;-51
2022/01/09 17:41:40;;;;;;;1.10;0.80;;;;;;;20.09;33.63;95507.09;12630533;23;20025;-50
2022/01/09 17:47:00;;;;;;;1.15;0.80;;;;;;;20.12;33.56;95511.78;12610783;23;20049;-50
2022/01/09 17:52:20;;;;;;;1.10;0.70;;;;;;;20.17;33.04;95515.31;12629609;23;20018;-51
2022/01/09 17:57:39;;;;;;;1.17;0.90;;;;;;;20.20;32.93;95523.50;12609516;23;20019;-52
2022/01/09 18:02:59;;;;;;;0.90;0.80;;;;;;;20.24;32.83;95535.16;12587989;23;20091;-51
2022/01/09 18:08:19;;;;;;;1.17;0.88;;;;;;;20.29;32.97;95544.94;12609733;23;20027;-52
2022/01/09 18:13:40;;;;;;;1.15;0.98;;;;;;;20.32;32.57;95550.38;12609438;23;20022;-54
2022/01/09 18:19:00;;;;;;;1.15;0.98;;;;;;;20.37;32.70;95559.38;12609723;23;20030;-51
2022/01/09 18:24:20;;;;;;;1.58;1.02;;;;;;;20.40;32.95;95567.50;12609913;23;20512;-51
2022/01/09 18:29:40;;;;;;;1.25;1.00;;;;;;;20.42;32.44;95570.66;12587214;23;20022;-51
2022/01/09 18:35:00;;;;;;;2.97;2.03;;;;;;;20.44;32.31;95564.88;12609744;23;20076;-51
2022/01/09 18:40:22;;;;;;;1.73;1.63;;;;;;;20.49;31.64;95589.72;12609402;23;20025;-51
2022/01/09 18:45:41;;;;;;;2.00;1.63;;;;;;;20.55;31.83;95590.22;12609202;23;20015;-51
2022/01/09 18:51:01;;;;;;;2.20;1.67;;;;;;;20.59;31.80;95588.38;12609978;23;20025;-54
2022/01/09 18:56:22;;;;;;;1.80;1.63;;;;;;;20.61;31.98;95594.22;12609192;23;20018;-51
2022/01/09 19:01:41;;;;;;;1.80;1.50;;;;;;;20.64;31.85;95600.81;12629290;23;20090;-51
2022/01/09 19:07:01;;;;;;;2.05;1.50;;;;;;;20.69;31.77;95605.94;12608792;23;20077;-53
2022/01/09 19:12:21;;;;;;;1.60;1.40;;;;;;;20.70;31.81;95616.41;12609412;23;20512;-51
2022/01/09 19:17:46;;;;;;;1.90;1.30;;;;;;;20.73;31.61;95612.97;12608347;23;20441;-51
2022/01/09 19:23:06;;;;;;;1.70;1.40;;;;;;;20.76;31.67;95613.38;12628570;23;20023;-51
2022/01/09 19:28:26;;;;;;;1.50;1.10;;;;;;;20.78;31.71;95617.31;12629015;23;20014;-51
2022/01/09 19:33:46;;;;;;;1.35;1.25;;;;;;;20.78;31.51;95625.44;12608604;23;20106;-51
2022/01/09 19:39:05;;;;;;;1.30;1.20;;;;;;;20.82;31.30;95628.22;12607236;23;20109;-51
2022/01/09 19:44:26;;;;;;;1.42;1.17;;;;;;;20.86;31.52;95648.00;12611978;23;20431;-51
2022/01/09 19:49:45;;;;;;;1.08;0.98;;;;;;;20.88;31.50;95653.84;12611281;23;20024;-50
2022/01/09 19:55:05;;;;;;;1.30;1.20;;;;;;;20.90;31.24;95667.78;12611880;23;20021;-51
2022/01/09 20:00:25;;;;;;;1.25;1.00;;;;;;;20.96;30.69;95669.06;12612015;23;20603;-52
2022/01/09 20:05:45;;;;;;;1.52;1.15;;;;;;;21.01;30.72;95674.19;12611932;23;20021;-50
2022/01/09 20:11:05;;;;;;;1.27;1.17;;;;;;;21.02;31.10;95681.16;12611007;23;20022;-51
2022/01/09 20:16:28;;;;;;;2.30;1.50;;;;;;;21.05;30.48;95683.16;12630838;23;20025;-51
2022/01/09 20:21:51;;;;;;;1.85;1.20;;;;;;;21.10;30.80;95693.66;12611481;23;20022;-51
2022/01/09 20:27:11;;;;;;;1.33;1.23;;;;;;;21.08;30.85;95704.06;12611000;23;20351;-51
2022/01/09 20:32:30;;;;;;;1.45;1.13;;;;;;;21.12;30.31;95712.25;12611291;23;20081;-50
2022/01/09 20:37:50;;;;;;;1.30;1.00;;;;;;;21.16;29.95;95717.75;12610964;23;20019;-54
2022/01/09 20:43:10;;;;;;;2.55;1.30;;;;;;;21.19;29.48;95711.59;12610345;23;20014;-51
2022/01/09 20:48:31;;;;;;;1.35;1.15;;;;;;;21.22;30.04;95727.13;12610181;23;20019;-50
2022/01/09 20:53:50;;;;;;;1.33;1.00;;;;;;;21.21;30.36;95734.47;12629847;23;20037;-51
2022/01/09 20:59:10;;;;;;;1.33;1.08;;;;;;;21.22;30.61;95740.66;12610405;23;20060;-51
2022/01/09 21:04:31;;;;;;;1.50;1.13;;;;;;;21.22;30.59;95752.28;12609761;23;20330;-51
2022/01/09 21:09:51;;;;;;;1.85;1.30;;;;;;;21.23;30.66;95758.47;12629610;23;20086;-51
2022/01/09 21:15:10;;;;;;;2.22;1.20;;;;;;;21.26;30.33;95763.97;12609709;23;20465;-51
2022/01/09 21:20:30;;;;;;;1.83;1.27;;;;;;;21.28;30.76;95771.72;12608973;23;20023;-51
2022/01/09 21:25:50;;;;;;;2.45;1.40;;;;;;;21.28;30.47;95777.94;12609693;23;20015;-52
2022/01/09 21:31:10;;;;;;;2.40;1.60;;;;;;;21.30;30.74;95786.47;12609897;23;20376;-51
2022/01/09 21:36:30;;;;;;;3.17;1.60;;;;;;;21.32;30.63;95792.31;12608953;23;20025;-51
2022/01/09 21:41:49;;;;;;;4.28;1.75;;;;;;;21.33;30.70;95804.72;12609716;23;20347;-51
2022/01/09 21:47:08;;;;;;;4.18;1.85;;;;;;;21.37;30.65;95806.72;12628092;23;20022;-51
2022/01/09 21:52:28;;;;;;;5.65;1.98;;;;;;;21.37;30.64;95823.00;12628788;23;20093;-51
2022/01/09 21:57:47;;;;;;;5.57;2.50;;;;;;;21.39;30.74;95826.13;12609459;23;20093;-51
2022/01/09 22:03:09;;;;;;;7.05;2.45;;;;;;;21.39;30.74;95826.13;12609277;23;20089;-50
2022/01/09 22:08:29;;;;;;;4.68;2.30;;;;;;;21.39;30.74;95826.13;12609587;23;20391;-51
2022/01/09 22:13:49;;;;;;;6.38;3.00;;;;;;;21.43;30.79;95835.91;12608565;23;20080;-51
2022/01/09 22:19:08;;;;;;;5.55;2.85;;;;;;;21.45;30.59;95844.44;12628377;23;20101;-51
2022/01/09 22:24:29;;;;;;;7.85;2.88;;;;;;;21.49;30.63;95855.34;12607787;23;20029;-51
2022/01/09 22:29:53;;;;;;;7.53;3.00;;;;;;;21.49;30.72;95856.13;12609078;23;20050;-51
2022/01/09 22:35:13;;;;;;;5.40;2.60;;;;;;;21.50;30.59;95860.44;12607854;23;20018;-51
2022/01/09 22:40:33;;;;;;;5.97;2.65;;;;;;;21.52;30.56;95865.47;12628667;23;20478;-52
2022/01/09 22:45:53;;;;;;;7.13;2.97;;;;;;;21.52;30.52;95882.53;12606649;23;20098;-50
2022/01/09 22:51:12;;;;;;;4.60;2.70;;;;;;;21.53;30.54;95886.78;12604928;23;20026;-51
2022/01/09 22:56:32;;;;;;;4.47;2.60;;;;;;;21.55;30.48;95888.38;12625661;23;20077;-51
2022/01/09 23:01:52;;;;;;;5.75;3.00;;;;;;;21.56;30.57;95898.06;12607721;23;20018;-53
2022/01/09 23:07:12;;;;;;;6.10;3.30;;;;;;;21.55;30.76;95908.13;12607316;23;20029;-51
2022/01/09 23:12:31;;;;;;;7.85;3.67;;;;;;;21.56;30.69;95915.13;12626046;23;20019;-53
2022/01/09 23:17:51;;;;;;;5.57;3.55;;;;;;;21.57;30.89;95915.91;12610200;23;20023;-52
2022/01/09 23:23:12;;;;;;;6.78;3.08;;;;;;;21.56;31.01;95931.38;12589184;23;20022;-51
2022/01/09 23:28:32;;;;;;;4.88;3.08;;;;;;;21.55;30.95;95929.81;12611537;23;20351;-54
2022/01/09 23:33:51;;;;;;;3.45;2.60;;;;;;;21.55;31.11;95934.44;12611546;23;20024;-53
2022/01/09 23:39:10;;;;;;;5.90;2.90;;;;;;;21.53;30.91;95941.00;12611639;23;20065;-51
2022/01/09 23:44:30;;;;;;;4.00;2.47;;;;;;;21.53;30.24;95943.69;12633148;23;20024;-53
2022/01/09 23:55:29;;;;;;;4.47;2.42;;;;;;;21.51;30.17;95956.81;12632582;23;20018;-50
